sensor_id;sensor_type;location;lat;lon;timestamp;P1;durP1;ratioP1;P2;durP2;ratioP2
5795;SDS011;2924;51.458;7.046;2022-09-09T00:06:50;4.40;;;0.80;;
5795;SDS011;2924;51.458;7.046;2022-09-09T00:09:29;4.17;;;1.20;;
5795;SDS011;2924;51.458;7.046;2022-09-09T00:12:00;4.40;;;1.27;;
5795;SDS011;2924;51.458;7.046;2022-09-09T00:14:52;23.17;;;2.73;;
5795;SDS011;2924;51.458;7.046;2022-09-09T00:19:56;5.90;;;1.03;;
5795;SDS011;2924;51.458;7.046;2022-09-09T00:22:34;2.50;;;1.40;;
5795;SDS011;2924;51.458;7.046;2022-09-09T00:27:44;5.47;;;1.37;;
5795;SDS011;2924;51.458;7.046;2022-09-09T00:32:47;4.60;;;1.10;;
5795;SDS011;2924;51.458;7.046;2022-09-09T00:35:48;5.00;;;1.10;;
5795;SDS011;2924;51.458;7.046;2022-09-09T00:38:42;1.17;;;1.03;;
5795;SDS011;2924;51.458;7.046;2022-09-09T00:44:11;2.00;;;1.10;;
5795;SDS011;2924;51.458;7.046;2022-09-09T00:47:12;1.60;;;1.50;;
5795;SDS011;2924;51.458;7.046;2022-09-09T00:50:24;5.00;;;1.50;;
5795;SDS011;2924;51.458;7.046;2022-09-09T00:58:32;2.67;;;1.53;;
5795;SDS011;2924;51.458;7.046;2022-09-09T01:01:05;2.20;;;1.20;;
5795;SDS011;2924;51.458;7.046;2022-09-09T01:03:47;1.63;;;1.30;;
5795;SDS011;2924;51.458;7.046;2022-09-09T01:06:30;1.43;;;1.30;;
5795;SDS011;2924;51.458;7.046;2022-09-09T01:14:42;2.90;;;1.27;;
5795;SDS011;2924;51.458;7.046;2022-09-09T01:17:17;6.30;;;1.53;;
5795;SDS011;2924;51.458;7.046;2022-09-09T01:19:52;5.30;;;2.10;;
5795;SDS011;2924;51.458;7.046;2022-09-09T01:28:02;1.93;;;1.80;;
5795;SDS011;2924;51.458;7.046;2022-09-09T01:30:33;4.50;;;1.90;;
5795;SDS011;2924;51.458;7.046;2022-09-09T01:33:00;5.60;;;1.90;;
5795;SDS011;2924;51.458;7.046;2022-09-09T01:35:40;9.43;;;1.77;;
5795;SDS011;2924;51.458;7.046;2022-09-09T01:38:15;2.30;;;1.60;;
5795;SDS011;2924;51.458;7.046;2022-09-09T01:40:42;3.40;;;1.90;;
5795;SDS011;2924;51.458;7.046;2022-09-09T01:43:08;2.10;;;2.00;;
5795;SDS011;2924;51.458;7.046;2022-09-09T01:45:34;3.93;;;1.80;;
5795;SDS011;2924;51.458;7.046;2022-09-09T01:48:00;5.47;;;1.80;;
5795;SDS011;2924;51.458;7.046;2022-09-09T01:50:28;3.50;;;1.67;;
5795;SDS011;2924;51.458;7.046;2022-09-09T01:52:55;3.20;;;1.83;;
5795;SDS011;2924;51.458;7.046;2022-09-09T01:55:30;4.37;;;1.83;;
5795;SDS011;2924;51.458;7.046;2022-09-09T02:00:53;5.23;;;2.43;;
5795;SDS011;2924;51.458;7.046;2022-09-09T02:03:27;8.70;;;3.33;;
5795;SDS011;2924;51.458;7.046;2022-09-09T02:06:04;6.23;;;2.60;;
5795;SDS011;2924;51.458;7.046;2022-09-09T02:08:46;7.93;;;2.70;;
5795;SDS011;2924;51.458;7.046;2022-09-09T02:11:18;11.70;;;3.53;;
5795;SDS011;2924;51.458;7.046;2022-09-09T02:13:47;8.23;;;3.13;;
5795;SDS011;2924;51.458;7.046;2022-09-09T02:19:02;6.53;;;2.70;;
5795;SDS011;2924;51.458;7.046;2022-09-09T02:21:33;8.87;;;2.93;;
5795;SDS011;2924;51.458;7.046;2022-09-09T02:24:04;9.27;;;2.70;;
5795;SDS011;2924;51.458;7.046;2022-09-09T02:26:34;5.17;;;2.80;;
5795;SDS011;2924;51.458;7.046;2022-09-09T02:29:05;6.83;;;3.03;;
5795;SDS011;2924;51.458;7.046;2022-09-09T02:31:39;6.17;;;2.70;;
5795;SDS011;2924;51.458;7.046;2022-09-09T02:34:08;8.57;;;2.60;;
5795;SDS011;2924;51.458;7.046;2022-09-09T02:36:36;7.67;;;2.67;;
5795;SDS011;2924;51.458;7.046;2022-09-09T02:39:04;4.37;;;2.70;;
5795;SDS011;2924;51.458;7.046;2022-09-09T02:41:33;6.83;;;2.70;;
5795;SDS011;2924;51.458;7.046;2022-09-09T02:44:01;8.17;;;4.07;;
5795;SDS011;2924;51.458;7.046;2022-09-09T02:46:55;4.53;;;2.77;;
5795;SDS011;2924;51.458;7.046;2022-09-09T02:55:18;10.17;;;2.90;;
5795;SDS011;2924;51.458;7.046;2022-09-09T02:57:52;5.70;;;2.77;;
5795;SDS011;2924;51.458;7.046;2022-09-09T03:00:24;5.53;;;2.80;;
5795;SDS011;2924;51.458;7.046;2022-09-09T03:02:51;6.23;;;2.90;;
5795;SDS011;2924;51.458;7.046;2022-09-09T03:05:19;14.00;;;3.20;;
5795;SDS011;2924;51.458;7.046;2022-09-09T03:07:45;9.20;;;3.40;;
5795;SDS011;2924;51.458;7.046;2022-09-09T03:10:11;7.03;;;3.17;;
5795;SDS011;2924;51.458;7.046;2022-09-09T03:12:37;8.03;;;3.53;;
5795;SDS011;2924;51.458;7.046;2022-09-09T03:15:03;9.20;;;3.60;;
5795;SDS011;2924;51.458;7.046;2022-09-09T03:17:30;10.07;;;3.37;;
5795;SDS011;2924;51.458;7.046;2022-09-09T03:19:56;6.37;;;3.80;;
5795;SDS011;2924;51.458;7.046;2022-09-09T03:22:22;8.90;;;3.83;;
5795;SDS011;2924;51.458;7.046;2022-09-09T03:24:48;7.63;;;3.27;;
5795;SDS011;2924;51.458;7.046;2022-09-09T03:27:14;5.57;;;2.83;;
5795;SDS011;2924;51.458;7.046;2022-09-09T03:29:39;11.10;;;3.17;;
5795;SDS011;2924;51.458;7.046;2022-09-09T03:32:05;13.33;;;3.17;;
5795;SDS011;2924;51.458;7.046;2022-09-09T03:34:31;5.43;;;3.30;;
5795;SDS011;2924;51.458;7.046;2022-09-09T03:36:57;6.47;;;3.30;;
5795;SDS011;2924;51.458;7.046;2022-09-09T03:39:22;11.67;;;2.87;;
5795;SDS011;2924;51.458;7.046;2022-09-09T03:41:48;13.40;;;2.30;;
5795;SDS011;2924;51.458;7.046;2022-09-09T03:44:14;12.17;;;4.40;;
5795;SDS011;2924;51.458;7.046;2022-09-09T03:46:40;5.20;;;2.70;;
5795;SDS011;2924;51.458;7.046;2022-09-09T03:49:05;7.17;;;2.33;;
5795;SDS011;2924;51.458;7.046;2022-09-09T03:51:31;12.57;;;3.30;;
5795;SDS011;2924;51.458;7.046;2022-09-09T03:53:59;4.43;;;1.50;;
5795;SDS011;2924;51.458;7.046;2022-09-09T03:56:25;6.17;;;2.00;;
5795;SDS011;2924;51.458;7.046;2022-09-09T03:58:51;10.47;;;3.30;;
5795;SDS011;2924;51.458;7.046;2022-09-09T04:01:17;11.80;;;2.80;;
5795;SDS011;2924;51.458;7.046;2022-09-09T04:03:42;4.63;;;1.97;;
5795;SDS011;2924;51.458;7.046;2022-09-09T04:06:10;8.50;;;2.43;;
5795;SDS011;2924;51.458;7.046;2022-09-09T04:08:38;5.60;;;2.30;;
5795;SDS011;2924;51.458;7.046;2022-09-09T04:11:05;10.33;;;2.33;;
5795;SDS011;2924;51.458;7.046;2022-09-09T04:13:31;8.33;;;2.70;;
5795;SDS011;2924;51.458;7.046;2022-09-09T04:15:59;11.60;;;2.40;;
5795;SDS011;2924;51.458;7.046;2022-09-09T04:18:26;4.27;;;2.30;;
5795;SDS011;2924;51.458;7.046;2022-09-09T04:20:53;6.50;;;2.20;;
5795;SDS011;2924;51.458;7.046;2022-09-09T04:23:22;11.50;;;2.57;;
5795;SDS011;2924;51.458;7.046;2022-09-09T04:25:49;10.10;;;2.77;;
5795;SDS011;2924;51.458;7.046;2022-09-09T04:28:19;10.20;;;2.67;;
5795;SDS011;2924;51.458;7.046;2022-09-09T04:30:47;8.43;;;3.27;;
5795;SDS011;2924;51.458;7.046;2022-09-09T04:33:13;8.57;;;2.80;;
5795;SDS011;2924;51.458;7.046;2022-09-09T04:35:43;14.80;;;3.23;;
5795;SDS011;2924;51.458;7.046;2022-09-09T04:38:14;10.40;;;2.60;;
5795;SDS011;2924;51.458;7.046;2022-09-09T04:40:43;6.23;;;2.43;;
5795;SDS011;2924;51.458;7.046;2022-09-09T04:43:11;16.57;;;2.90;;
5795;SDS011;2924;51.458;7.046;2022-09-09T04:45:37;8.83;;;2.87;;
5795;SDS011;2924;51.458;7.046;2022-09-09T04:48:04;9.10;;;3.90;;
5795;SDS011;2924;51.458;7.046;2022-09-09T04:50:30;7.47;;;2.90;;
5795;SDS011;2924;51.458;7.046;2022-09-09T04:52:57;12.67;;;2.73;;
5795;SDS011;2924;51.458;7.046;2022-09-09T04:55:25;7.00;;;2.87;;
5795;SDS011;2924;51.458;7.046;2022-09-09T04:57:51;7.17;;;2.77;;
5795;SDS011;2924;51.458;7.046;2022-09-09T05:00:17;6.30;;;2.50;;
5795;SDS011;2924;51.458;7.046;2022-09-09T05:02:43;5.57;;;2.63;;
5795;SDS011;2924;51.458;7.046;2022-09-09T05:05:09;15.00;;;2.87;;
5795;SDS011;2924;51.458;7.046;2022-09-09T05:07:36;11.30;;;2.70;;
5795;SDS011;2924;51.458;7.046;2022-09-09T05:10:02;12.90;;;3.37;;
5795;SDS011;2924;51.458;7.046;2022-09-09T05:12:30;10.57;;;2.57;;
5795;SDS011;2924;51.458;7.046;2022-09-09T05:14:56;11.70;;;2.60;;
5795;SDS011;2924;51.458;7.046;2022-09-09T05:17:22;9.23;;;2.27;;
5795;SDS011;2924;51.458;7.046;2022-09-09T05:19:48;9.60;;;2.80;;
5795;SDS011;2924;51.458;7.046;2022-09-09T05:22:17;7.90;;;2.47;;
5795;SDS011;2924;51.458;7.046;2022-09-09T05:24:45;5.93;;;1.93;;
5795;SDS011;2924;51.458;7.046;2022-09-09T05:27:11;5.60;;;2.33;;
5795;SDS011;2924;51.458;7.046;2022-09-09T05:29:37;13.60;;;2.43;;
5795;SDS011;2924;51.458;7.046;2022-09-09T05:32:03;12.37;;;2.50;;
5795;SDS011;2924;51.458;7.046;2022-09-09T05:34:29;7.73;;;2.50;;
5795;SDS011;2924;51.458;7.046;2022-09-09T05:36:55;10.80;;;2.27;;
5795;SDS011;2924;51.458;7.046;2022-09-09T05:39:21;9.57;;;2.70;;
5795;SDS011;2924;51.458;7.046;2022-09-09T05:41:46;11.13;;;2.40;;
5795;SDS011;2924;51.458;7.046;2022-09-09T05:44:12;11.07;;;2.13;;
5795;SDS011;2924;51.458;7.046;2022-09-09T05:46:38;11.30;;;2.97;;
5795;SDS011;2924;51.458;7.046;2022-09-09T05:49:04;10.10;;;2.80;;
5795;SDS011;2924;51.458;7.046;2022-09-09T05:51:31;21.70;;;2.50;;
5795;SDS011;2924;51.458;7.046;2022-09-09T05:53:56;5.20;;;2.40;;
5795;SDS011;2924;51.458;7.046;2022-09-09T05:56:26;9.80;;;2.87;;
5795;SDS011;2924;51.458;7.046;2022-09-09T05:58:54;8.20;;;1.80;;
5795;SDS011;2924;51.458;7.046;2022-09-09T06:01:24;9.87;;;2.23;;
5795;SDS011;2924;51.458;7.046;2022-09-09T06:03:52;9.33;;;2.30;;
5795;SDS011;2924;51.458;7.046;2022-09-09T06:06:22;10.20;;;2.10;;
5795;SDS011;2924;51.458;7.046;2022-09-09T06:08:53;5.73;;;2.40;;
5795;SDS011;2924;51.458;7.046;2022-09-09T06:11:30;6.50;;;2.30;;
5795;SDS011;2924;51.458;7.046;2022-09-09T06:13:56;18.30;;;2.10;;
5795;SDS011;2924;51.458;7.046;2022-09-09T06:16:23;8.80;;;2.50;;
5795;SDS011;2924;51.458;7.046;2022-09-09T06:18:51;7.27;;;2.33;;
5795;SDS011;2924;51.458;7.046;2022-09-09T06:21:19;6.43;;;2.03;;
5795;SDS011;2924;51.458;7.046;2022-09-09T06:23:47;8.80;;;2.63;;
5795;SDS011;2924;51.458;7.046;2022-09-09T06:28:43;7.37;;;1.70;;
5795;SDS011;2924;51.458;7.046;2022-09-09T06:31:10;8.13;;;1.90;;
5795;SDS011;2924;51.458;7.046;2022-09-09T06:33:38;6.63;;;1.83;;
5795;SDS011;2924;51.458;7.046;2022-09-09T06:36:06;10.13;;;2.17;;
5795;SDS011;2924;51.458;7.046;2022-09-09T06:38:37;5.60;;;1.60;;
5795;SDS011;2924;51.458;7.046;2022-09-09T06:41:03;8.67;;;1.50;;
5795;SDS011;2924;51.458;7.046;2022-09-09T06:43:30;8.20;;;1.87;;
5795;SDS011;2924;51.458;7.046;2022-09-09T06:46:01;7.63;;;2.43;;
5795;SDS011;2924;51.458;7.046;2022-09-09T06:48:29;6.70;;;1.60;;
5795;SDS011;2924;51.458;7.046;2022-09-09T06:51:04;13.17;;;2.30;;
5795;SDS011;2924;51.458;7.046;2022-09-09T06:53:32;7.50;;;2.20;;
5795;SDS011;2924;51.458;7.046;2022-09-09T06:56:00;9.97;;;2.10;;
5795;SDS011;2924;51.458;7.046;2022-09-09T06:58:27;8.23;;;1.93;;
5795;SDS011;2924;51.458;7.046;2022-09-09T07:01:01;9.13;;;2.03;;
5795;SDS011;2924;51.458;7.046;2022-09-09T07:03:31;7.40;;;1.30;;
5795;SDS011;2924;51.458;7.046;2022-09-09T07:05:57;8.27;;;1.50;;
5795;SDS011;2924;51.458;7.046;2022-09-09T07:08:24;14.43;;;2.27;;
5795;SDS011;2924;51.458;7.046;2022-09-09T07:10:50;10.23;;;2.07;;
5795;SDS011;2924;51.458;7.046;2022-09-09T07:13:19;9.60;;;2.03;;
5795;SDS011;2924;51.458;7.046;2022-09-09T07:15:53;5.37;;;1.50;;
5795;SDS011;2924;51.458;7.046;2022-09-09T07:18:19;10.40;;;1.70;;
5795;SDS011;2924;51.458;7.046;2022-09-09T07:20:54;7.57;;;1.60;;
5795;SDS011;2924;51.458;7.046;2022-09-09T07:23:21;11.50;;;2.03;;
5795;SDS011;2924;51.458;7.046;2022-09-09T07:25:48;6.63;;;1.60;;
5795;SDS011;2924;51.458;7.046;2022-09-09T07:28:13;7.70;;;1.63;;
5795;SDS011;2924;51.458;7.046;2022-09-09T07:30:39;3.60;;;1.37;;
5795;SDS011;2924;51.458;7.046;2022-09-09T07:33:06;6.07;;;1.60;;
5795;SDS011;2924;51.458;7.046;2022-09-09T07:35:31;5.47;;;1.47;;
5795;SDS011;2924;51.458;7.046;2022-09-09T07:37:57;8.33;;;1.70;;
5795;SDS011;2924;51.458;7.046;2022-09-09T07:40:25;4.77;;;1.57;;
5795;SDS011;2924;51.458;7.046;2022-09-09T07:42:51;7.37;;;2.10;;
5795;SDS011;2924;51.458;7.046;2022-09-09T07:45:17;3.60;;;1.47;;
5795;SDS011;2924;51.458;7.046;2022-09-09T07:47:42;6.70;;;1.70;;
5795;SDS011;2924;51.458;7.046;2022-09-09T07:50:09;7.20;;;2.00;;
5795;SDS011;2924;51.458;7.046;2022-09-09T07:52:35;7.00;;;1.73;;
5795;SDS011;2924;51.458;7.046;2022-09-09T07:55:01;6.57;;;1.63;;
5795;SDS011;2924;51.458;7.046;2022-09-09T07:57:30;3.03;;;1.20;;
5795;SDS011;2924;51.458;7.046;2022-09-09T07:59:56;6.00;;;1.33;;
5795;SDS011;2924;51.458;7.046;2022-09-09T08:02:22;10.53;;;1.37;;
5795;SDS011;2924;51.458;7.046;2022-09-09T08:04:50;7.40;;;1.47;;
5795;SDS011;2924;51.458;7.046;2022-09-09T08:07:16;5.40;;;1.33;;
5795;SDS011;2924;51.458;7.046;2022-09-09T08:09:42;3.53;;;1.47;;
5795;SDS011;2924;51.458;7.046;2022-09-09T08:12:08;5.30;;;1.87;;
5795;SDS011;2924;51.458;7.046;2022-09-09T08:14:35;5.07;;;1.60;;
5795;SDS011;2924;51.458;7.046;2022-09-09T08:17:01;6.63;;;1.90;;
5795;SDS011;2924;51.458;7.046;2022-09-09T08:19:27;5.10;;;1.40;;
5795;SDS011;2924;51.458;7.046;2022-09-09T08:21:59;7.10;;;1.70;;
5795;SDS011;2924;51.458;7.046;2022-09-09T08:24:26;7.87;;;1.77;;
5795;SDS011;2924;51.458;7.046;2022-09-09T08:26:52;8.53;;;2.07;;
5795;SDS011;2924;51.458;7.046;2022-09-09T08:29:19;10.47;;;2.23;;
5795;SDS011;2924;51.458;7.046;2022-09-09T08:31:48;9.03;;;1.77;;
5795;SDS011;2924;51.458;7.046;2022-09-09T08:34:16;9.07;;;2.30;;
5795;SDS011;2924;51.458;7.046;2022-09-09T08:36:45;7.40;;;1.27;;
5795;SDS011;2924;51.458;7.046;2022-09-09T08:39:12;6.43;;;1.50;;
5795;SDS011;2924;51.458;7.046;2022-09-09T09:12:00;10.00;;;1.50;;
5795;SDS011;2924;51.458;7.046;2022-09-09T09:14:30;3.80;;;1.60;;
5795;SDS011;2924;51.458;7.046;2022-09-09T09:19:58;5.93;;;1.60;;
5795;SDS011;2924;51.458;7.046;2022-09-09T09:30:39;7.63;;;1.67;;
5795;SDS011;2924;51.458;7.046;2022-09-09T09:36:01;9.17;;;1.80;;
5795;SDS011;2924;51.458;7.046;2022-09-09T09:38:28;3.53;;;1.20;;
5795;SDS011;2924;51.458;7.046;2022-09-09T09:40:55;12.30;;;1.40;;
5795;SDS011;2924;51.458;7.046;2022-09-09T09:43:34;7.83;;;1.50;;
5795;SDS011;2924;51.458;7.046;2022-09-09T09:46:04;3.53;;;1.20;;
5795;SDS011;2924;51.458;7.046;2022-09-09T09:48:43;6.73;;;1.00;;
5795;SDS011;2924;51.458;7.046;2022-09-09T09:51:10;6.57;;;1.17;;
5795;SDS011;2924;51.458;7.046;2022-09-09T09:53:41;5.63;;;1.33;;
5795;SDS011;2924;51.458;7.046;2022-09-09T09:56:11;5.27;;;1.20;;
5795;SDS011;2924;51.458;7.046;2022-09-09T10:01:24;3.50;;;1.37;;
5795;SDS011;2924;51.458;7.046;2022-09-09T10:04:01;15.23;;;1.50;;
5795;SDS011;2924;51.458;7.046;2022-09-09T10:06:50;7.33;;;1.47;;
5795;SDS011;2924;51.458;7.046;2022-09-09T10:09:23;5.40;;;1.57;;
5795;SDS011;2924;51.458;7.046;2022-09-09T10:14:57;9.83;;;1.37;;
5795;SDS011;2924;51.458;7.046;2022-09-09T10:17:44;3.90;;;1.10;;
5795;SDS011;2924;51.458;7.046;2022-09-09T10:20:45;9.30;;;1.23;;
5795;SDS011;2924;51.458;7.046;2022-09-09T10:32:04;9.13;;;1.40;;
5795;SDS011;2924;51.458;7.046;2022-09-09T10:34:52;9.30;;;1.20;;
5795;SDS011;2924;51.458;7.046;2022-09-09T10:37:47;6.13;;;1.50;;
5795;SDS011;2924;51.458;7.046;2022-09-09T10:40:20;2.97;;;1.10;;
5795;SDS011;2924;51.458;7.046;2022-09-09T10:43:01;3.60;;;1.00;;
5795;SDS011;2924;51.458;7.046;2022-09-09T10:52:07;4.10;;;0.90;;
5795;SDS011;2924;51.458;7.046;2022-09-09T10:57:27;4.53;;;1.23;;
5795;SDS011;2924;51.458;7.046;2022-09-09T11:00:02;5.13;;;1.17;;
5795;SDS011;2924;51.458;7.046;2022-09-09T11:02:33;4.33;;;0.90;;
5795;SDS011;2924;51.458;7.046;2022-09-09T11:05:08;3.50;;;1.10;;
5795;SDS011;2924;51.458;7.046;2022-09-09T11:08:15;2.10;;;0.90;;
5795;SDS011;2924;51.458;7.046;2022-09-09T11:10:53;2.20;;;0.83;;
5795;SDS011;2924;51.458;7.046;2022-09-09T11:13:37;4.87;;;1.13;;
5795;SDS011;2924;51.458;7.046;2022-09-09T11:19:12;9.83;;;1.70;;
5795;SDS011;2924;51.458;7.046;2022-09-09T11:22:07;2.20;;;1.07;;
5795;SDS011;2924;51.458;7.046;2022-09-09T11:24:47;4.67;;;1.33;;
5795;SDS011;2924;51.458;7.046;2022-09-09T11:27:43;7.70;;;1.63;;
5795;SDS011;2924;51.458;7.046;2022-09-09T11:41:16;1.73;;;0.57;;
5795;SDS011;2924;51.458;7.046;2022-09-09T11:43:51;2.90;;;1.30;;
5795;SDS011;2924;51.458;7.046;2022-09-09T11:46:18;1.93;;;0.90;;
5795;SDS011;2924;51.458;7.046;2022-09-09T11:48:58;8.53;;;1.20;;
5795;SDS011;2924;51.458;7.046;2022-09-09T11:51:26;6.10;;;1.13;;
5795;SDS011;2924;51.458;7.046;2022-09-09T11:53:58;2.03;;;1.03;;
5795;SDS011;2924;51.458;7.046;2022-09-09T11:56:30;5.53;;;0.93;;
5795;SDS011;2924;51.458;7.046;2022-09-09T12:01:34;2.33;;;1.00;;
5795;SDS011;2924;51.458;7.046;2022-09-09T12:04:05;6.10;;;0.90;;
5795;SDS011;2924;51.458;7.046;2022-09-09T12:06:44;3.87;;;1.20;;
5795;SDS011;2924;51.458;7.046;2022-09-09T12:14:38;3.10;;;1.37;;
5795;SDS011;2924;51.458;7.046;2022-09-09T12:19:47;6.10;;;1.10;;
5795;SDS011;2924;51.458;7.046;2022-09-09T12:25:29;4.00;;;1.07;;
5795;SDS011;2924;51.458;7.046;2022-09-09T12:28:02;3.90;;;1.00;;
5795;SDS011;2924;51.458;7.046;2022-09-09T12:30:49;6.10;;;1.20;;
5795;SDS011;2924;51.458;7.046;2022-09-09T12:33:34;8.07;;;0.80;;
5795;SDS011;2924;51.458;7.046;2022-09-09T12:36:02;3.57;;;0.70;;
5795;SDS011;2924;51.458;7.046;2022-09-09T12:38:35;2.40;;;0.77;;
5795;SDS011;2924;51.458;7.046;2022-09-09T12:41:03;2.60;;;0.70;;
5795;SDS011;2924;51.458;7.046;2022-09-09T12:43:29;4.83;;;1.00;;
5795;SDS011;2924;51.458;7.046;2022-09-09T12:46:07;8.73;;;1.00;;
5795;SDS011;2924;51.458;7.046;2022-09-09T12:48:39;6.03;;;1.87;;
5795;SDS011;2924;51.458;7.046;2022-09-09T12:51:19;2.63;;;0.97;;
5795;SDS011;2924;51.458;7.046;2022-09-09T12:53:50;2.30;;;0.83;;
5795;SDS011;2924;51.458;7.046;2022-09-09T12:56:27;2.60;;;0.80;;
5795;SDS011;2924;51.458;7.046;2022-09-09T12:58:55;5.00;;;1.33;;
5795;SDS011;2924;51.458;7.046;2022-09-09T13:03:54;6.10;;;1.37;;
5795;SDS011;2924;51.458;7.046;2022-09-09T13:06:24;4.60;;;1.03;;
5795;SDS011;2924;51.458;7.046;2022-09-09T13:08:52;3.97;;;0.90;;
5795;SDS011;2924;51.458;7.046;2022-09-09T13:11:40;4.73;;;0.77;;
5795;SDS011;2924;51.458;7.046;2022-09-09T13:14:12;6.13;;;1.33;;
5795;SDS011;2924;51.458;7.046;2022-09-09T13:16:58;2.23;;;1.20;;
5795;SDS011;2924;51.458;7.046;2022-09-09T13:19:26;4.30;;;1.00;;
5795;SDS011;2924;51.458;7.046;2022-09-09T13:21:56;5.50;;;1.03;;
5795;SDS011;2924;51.458;7.046;2022-09-09T13:24:30;6.03;;;1.73;;
5795;SDS011;2924;51.458;7.046;2022-09-09T13:26:58;4.60;;;1.20;;
5795;SDS011;2924;51.458;7.046;2022-09-09T13:29:50;4.00;;;1.30;;
5795;SDS011;2924;51.458;7.046;2022-09-09T13:32:21;2.30;;;1.00;;
5795;SDS011;2924;51.458;7.046;2022-09-09T13:34:56;3.90;;;1.30;;
5795;SDS011;2924;51.458;7.046;2022-09-09T13:37:31;9.17;;;1.60;;
5795;SDS011;2924;51.458;7.046;2022-09-09T13:40:00;2.50;;;0.90;;
5795;SDS011;2924;51.458;7.046;2022-09-09T13:42:31;8.43;;;1.57;;
5795;SDS011;2924;51.458;7.046;2022-09-09T13:45:00;5.63;;;1.30;;
5795;SDS011;2924;51.458;7.046;2022-09-09T13:47:34;6.00;;;1.40;;
5795;SDS011;2924;51.458;7.046;2022-09-09T13:52:46;7.50;;;1.47;;
5795;SDS011;2924;51.458;7.046;2022-09-09T13:55:14;7.67;;;1.20;;
5795;SDS011;2924;51.458;7.046;2022-09-09T13:57:49;1.83;;;0.83;;
5795;SDS011;2924;51.458;7.046;2022-09-09T14:00:19;3.50;;;1.10;;
5795;SDS011;2924;51.458;7.046;2022-09-09T14:02:46;2.53;;;1.10;;
5795;SDS011;2924;51.458;7.046;2022-09-09T14:05:13;6.37;;;1.27;;
5795;SDS011;2924;51.458;7.046;2022-09-09T14:07:40;4.07;;;0.90;;
5795;SDS011;2924;51.458;7.046;2022-09-09T14:10:07;6.10;;;0.90;;
5795;SDS011;2924;51.458;7.046;2022-09-09T14:12:33;5.00;;;1.17;;
5795;SDS011;2924;51.458;7.046;2022-09-09T14:15:00;2.73;;;0.87;;
5795;SDS011;2924;51.458;7.046;2022-09-09T14:17:26;2.27;;;0.80;;
5795;SDS011;2924;51.458;7.046;2022-09-09T14:19:54;4.80;;;1.10;;
5795;SDS011;2924;51.458;7.046;2022-09-09T14:22:21;2.30;;;1.10;;
5795;SDS011;2924;51.458;7.046;2022-09-09T14:24:47;3.93;;;1.00;;
5795;SDS011;2924;51.458;7.046;2022-09-09T14:27:13;4.37;;;1.07;;
5795;SDS011;2924;51.458;7.046;2022-09-09T14:29:39;11.67;;;1.80;;
5795;SDS011;2924;51.458;7.046;2022-09-09T14:32:05;9.33;;;1.77;;
5795;SDS011;2924;51.458;7.046;2022-09-09T14:34:30;8.80;;;2.43;;
5795;SDS011;2924;51.458;7.046;2022-09-09T14:36:57;6.70;;;1.50;;
5795;SDS011;2924;51.458;7.046;2022-09-09T14:39:23;5.23;;;1.53;;
5795;SDS011;2924;51.458;7.046;2022-09-09T14:41:49;6.70;;;1.60;;
5795;SDS011;2924;51.458;7.046;2022-09-09T14:44:15;8.40;;;1.97;;
5795;SDS011;2924;51.458;7.046;2022-09-09T14:46:43;7.07;;;2.03;;
5795;SDS011;2924;51.458;7.046;2022-09-09T14:49:09;10.80;;;2.00;;
5795;SDS011;2924;51.458;7.046;2022-09-09T14:51:35;8.27;;;2.07;;
5795;SDS011;2924;51.458;7.046;2022-09-09T14:54:01;3.80;;;1.30;;
5795;SDS011;2924;51.458;7.046;2022-09-09T14:56:28;5.63;;;1.83;;
5795;SDS011;2924;51.458;7.046;2022-09-09T14:58:56;4.10;;;1.40;;
5795;SDS011;2924;51.458;7.046;2022-09-09T15:01:23;5.67;;;1.60;;
5795;SDS011;2924;51.458;7.046;2022-09-09T15:03:58;6.00;;;2.20;;
5795;SDS011;2924;51.458;7.046;2022-09-09T15:06:26;10.40;;;2.30;;
5795;SDS011;2924;51.458;7.046;2022-09-09T15:08:54;2.77;;;1.30;;
5795;SDS011;2924;51.458;7.046;2022-09-09T15:11:23;2.23;;;1.10;;
5795;SDS011;2924;51.458;7.046;2022-09-09T15:13:50;2.87;;;1.17;;
5795;SDS011;2924;51.458;7.046;2022-09-09T15:16:20;3.50;;;1.27;;
5795;SDS011;2924;51.458;7.046;2022-09-09T15:18:50;5.03;;;1.50;;
5795;SDS011;2924;51.458;7.046;2022-09-09T15:21:17;1.53;;;1.27;;
5795;SDS011;2924;51.458;7.046;2022-09-09T15:23:46;1.77;;;1.17;;
5795;SDS011;2924;51.458;7.046;2022-09-09T15:26:12;0.80;;;0.80;;
5795;SDS011;2924;51.458;7.046;2022-09-09T15:28:42;0.87;;;0.60;;
5795;SDS011;2924;51.458;7.046;2022-09-09T15:31:11;4.10;;;1.00;;
5795;SDS011;2924;51.458;7.046;2022-09-09T15:33:46;2.10;;;0.70;;
5795;SDS011;2924;51.458;7.046;2022-09-09T15:36:20;11.77;;;1.77;;
5795;SDS011;2924;51.458;7.046;2022-09-09T15:38:48;1.33;;;0.87;;
5795;SDS011;2924;51.458;7.046;2022-09-09T15:41:14;3.23;;;0.80;;
5795;SDS011;2924;51.458;7.046;2022-09-09T15:43:44;1.90;;;0.63;;
5795;SDS011;2924;51.458;7.046;2022-09-09T15:49:14;2.17;;;1.33;;
5795;SDS011;2924;51.458;7.046;2022-09-09T15:51:50;5.80;;;3.30;;
5795;SDS011;2924;51.458;7.046;2022-09-09T15:54:18;0.93;;;0.90;;
5795;SDS011;2924;51.458;7.046;2022-09-09T15:56:50;0.70;;;0.50;;
5795;SDS011;2924;51.458;7.046;2022-09-09T15:59:19;3.50;;;0.70;;
5795;SDS011;2924;51.458;7.046;2022-09-09T16:01:45;1.50;;;0.60;;
5795;SDS011;2924;51.458;7.046;2022-09-09T16:04:11;3.70;;;0.87;;
5795;SDS011;2924;51.458;7.046;2022-09-09T16:06:37;1.00;;;0.90;;
5795;SDS011;2924;51.458;7.046;2022-09-09T16:09:04;0.60;;;0.60;;
5795;SDS011;2924;51.458;7.046;2022-09-09T16:11:32;4.40;;;0.70;;
5795;SDS011;2924;51.458;7.046;2022-09-09T16:14:00;5.73;;;1.03;;
5795;SDS011;2924;51.458;7.046;2022-09-09T16:16:27;0.70;;;0.70;;
5795;SDS011;2924;51.458;7.046;2022-09-09T16:18:54;3.40;;;0.93;;
5795;SDS011;2924;51.458;7.046;2022-09-09T16:21:23;1.70;;;0.80;;
5795;SDS011;2924;51.458;7.046;2022-09-09T16:23:51;3.07;;;0.77;;
5795;SDS011;2924;51.458;7.046;2022-09-09T16:26:21;5.57;;;0.80;;
5795;SDS011;2924;51.458;7.046;2022-09-09T16:28:48;1.20;;;0.80;;
5795;SDS011;2924;51.458;7.046;2022-09-09T16:31:15;1.17;;;0.53;;
5795;SDS011;2924;51.458;7.046;2022-09-09T16:33:43;0.87;;;0.60;;
5795;SDS011;2924;51.458;7.046;2022-09-09T16:36:10;6.30;;;0.80;;
5795;SDS011;2924;51.458;7.046;2022-09-09T16:38:38;4.27;;;0.87;;
5795;SDS011;2924;51.458;7.046;2022-09-09T16:41:05;2.20;;;1.23;;
5795;SDS011;2924;51.458;7.046;2022-09-09T16:43:32;4.93;;;1.50;;
5795;SDS011;2924;51.458;7.046;2022-09-09T16:45:58;1.73;;;0.93;;
5795;SDS011;2924;51.458;7.046;2022-09-09T16:48:30;5.00;;;1.10;;
5795;SDS011;2924;51.458;7.046;2022-09-09T16:51:01;1.43;;;1.03;;
5795;SDS011;2924;51.458;7.046;2022-09-09T16:53:31;2.60;;;1.33;;
5795;SDS011;2924;51.458;7.046;2022-09-09T16:55:58;4.10;;;1.10;;
5795;SDS011;2924;51.458;7.046;2022-09-09T16:58:29;1.77;;;1.13;;
5795;SDS011;2924;51.458;7.046;2022-09-09T17:01:01;2.57;;;1.40;;
5795;SDS011;2924;51.458;7.046;2022-09-09T17:03:28;2.60;;;1.30;;
5795;SDS011;2924;51.458;7.046;2022-09-09T17:05:54;6.03;;;2.00;;
5795;SDS011;2924;51.458;7.046;2022-09-09T17:08:22;5.53;;;1.90;;
5795;SDS011;2924;51.458;7.046;2022-09-09T17:10:49;6.97;;;1.67;;
5795;SDS011;2924;51.458;7.046;2022-09-09T17:13:15;5.17;;;1.97;;
5795;SDS011;2924;51.458;7.046;2022-09-09T17:15:44;6.00;;;2.23;;
5795;SDS011;2924;51.458;7.046;2022-09-09T17:18:10;2.33;;;1.87;;
5795;SDS011;2924;51.458;7.046;2022-09-09T17:20:37;3.93;;;1.60;;
5795;SDS011;2924;51.458;7.046;2022-09-09T17:23:07;5.10;;;2.10;;
5795;SDS011;2924;51.458;7.046;2022-09-09T17:25:34;5.00;;;2.40;;
5795;SDS011;2924;51.458;7.046;2022-09-09T17:28:00;5.53;;;2.77;;
5795;SDS011;2924;51.458;7.046;2022-09-09T17:30:29;5.50;;;2.47;;
5795;SDS011;2924;51.458;7.046;2022-09-09T17:32:59;8.30;;;2.03;;
5795;SDS011;2924;51.458;7.046;2022-09-09T17:35:25;7.90;;;2.93;;
5795;SDS011;2924;51.458;7.046;2022-09-09T17:37:52;5.43;;;2.70;;
5795;SDS011;2924;51.458;7.046;2022-09-09T17:40:19;8.63;;;2.50;;
5795;SDS011;2924;51.458;7.046;2022-09-09T17:42:45;2.83;;;2.53;;
5795;SDS011;2924;51.458;7.046;2022-09-09T17:45:12;3.00;;;2.30;;
5795;SDS011;2924;51.458;7.046;2022-09-09T17:47:39;4.00;;;2.77;;
5795;SDS011;2924;51.458;7.046;2022-09-09T17:50:05;5.13;;;2.37;;
5795;SDS011;2924;51.458;7.046;2022-09-09T17:52:31;7.07;;;2.37;;
5795;SDS011;2924;51.458;7.046;2022-09-09T17:54:57;8.10;;;3.20;;
5795;SDS011;2924;51.458;7.046;2022-09-09T17:57:23;8.50;;;3.10;;
5795;SDS011;2924;51.458;7.046;2022-09-09T17:59:49;2.60;;;2.23;;
5795;SDS011;2924;51.458;7.046;2022-09-09T18:02:15;5.33;;;2.87;;